createdAt,value
2019-03-27T00:01:42.058Z,10.25
2019-03-27T00:04:15.758Z,9.50
2019-03-27T00:06:49.279Z,9.63
2019-03-27T00:09:22.418Z,9.60
2019-03-27T00:11:55.118Z,9.75
2019-03-27T00:14:28.458Z,8.80
2019-03-27T00:17:01.298Z,9.75
2019-03-27T00:19:35.419Z,10.20
2019-03-27T00:22:09.479Z,11.95
2019-03-27T00:24:43.120Z,11.68
2019-03-27T00:27:16.380Z,10.32
2019-03-27T00:29:49.919Z,10.23
2019-03-27T00:32:23.899Z,9.08
2019-03-27T00:34:57.299Z,8.70
2019-03-27T00:37:30.800Z,9.60
2019-03-27T00:40:04.279Z,8.83
2019-03-27T00:42:37.220Z,9.30
2019-03-27T00:45:25.519Z,9.40
2019-03-27T00:47:46.219Z,9.10
2019-03-27T00:50:19.923Z,8.50
2019-03-27T00:52:53.440Z,8.85
2019-03-27T00:55:25.778Z,10.53
2019-03-27T00:57:58.338Z,9.35
2019-03-27T01:00:35.918Z,9.05
2019-03-27T01:03:09.258Z,8.90
2019-03-27T01:05:42.778Z,10.55
2019-03-27T01:08:16.340Z,10.03
2019-03-27T01:10:49.199Z,10.58
2019-03-27T01:13:22.799Z,10.98
2019-03-27T01:15:56.740Z,13.00
2019-03-27T01:18:30.501Z,11.88
2019-03-27T01:21:02.979Z,11.70
2019-03-27T01:23:36.340Z,12.70
2019-03-27T01:26:09.261Z,13.55
2019-03-27T01:28:41.618Z,12.47
2019-03-27T01:31:14.358Z,12.78
2019-03-27T01:33:46.958Z,11.35
2019-03-27T01:36:20.159Z,12.37
2019-03-27T01:38:53.258Z,15.03
2019-03-27T01:41:26.098Z,13.70
2019-03-27T01:43:58.787Z,13.95
2019-03-27T01:46:32.623Z,14.23
2019-03-27T01:49:05.239Z,17.77
2019-03-27T01:51:38.520Z,14.55
2019-03-27T01:54:11.121Z,17.12
2019-03-27T01:56:44.799Z,13.32
2019-03-27T01:59:17.480Z,14.90
2019-03-27T02:01:51.439Z,12.15
2019-03-27T02:04:25.579Z,13.15
2019-03-27T02:06:59.338Z,10.70
2019-03-27T02:09:32.741Z,12.75
2019-03-27T02:12:06.358Z,12.10
2019-03-27T02:14:40.198Z,12.10
2019-03-27T02:17:13.822Z,13.10
2019-03-27T02:19:47.382Z,12.28
2019-03-27T02:22:21.019Z,12.55
2019-03-27T02:24:55.498Z,10.98
2019-03-27T02:27:29.039Z,11.95
2019-03-27T02:30:02.644Z,10.98
2019-03-27T02:32:35.658Z,12.85
2019-03-27T02:35:08.719Z,12.35
2019-03-27T02:37:41.560Z,12.65
2019-03-27T02:40:14.638Z,10.53
2019-03-27T02:42:48.699Z,10.78
2019-03-27T02:45:21.385Z,9.50
2019-03-27T02:47:55.140Z,8.40
2019-03-27T02:50:29.100Z,7.97
2019-03-27T02:53:02.640Z,7.92
2019-03-27T02:55:36.222Z,7.60
2019-03-27T02:58:10.359Z,8.30
2019-03-27T03:00:44.302Z,8.10
2019-03-27T03:03:18.379Z,8.70
2019-03-27T03:05:51.780Z,10.48
2019-03-27T03:08:24.778Z,8.28
2019-03-27T03:10:58.378Z,9.53
2019-03-27T03:13:31.599Z,7.67
2019-03-27T03:16:04.401Z,8.35
2019-03-27T03:18:37.678Z,9.03
2019-03-27T03:21:11.038Z,8.28
2019-03-27T03:23:44.245Z,11.08
2019-03-27T03:26:17.481Z,9.60
2019-03-27T03:28:50.803Z,11.45
2019-03-27T03:31:24.431Z,10.58
2019-03-27T03:33:58.320Z,12.60
2019-03-27T03:36:31.347Z,14.07
2019-03-27T03:39:05.202Z,14.40
2019-03-27T03:41:38.820Z,14.07
2019-03-27T03:44:12.402Z,13.62
2019-03-27T03:46:58.731Z,12.60
2019-03-27T03:49:20.659Z,11.70
2019-03-27T03:51:54.242Z,14.10
2019-03-27T03:54:27.918Z,12.82
2019-03-27T03:57:01.678Z,11.80
2019-03-27T03:59:35.726Z,15.90
2019-03-27T04:02:09.159Z,11.65
2019-03-27T04:04:43.440Z,11.60
2019-03-27T04:07:17.267Z,13.78
2019-03-27T04:09:50.664Z,18.80
2019-03-27T04:12:23.900Z,16.30
2019-03-27T04:14:57.519Z,19.25
2019-03-27T04:17:30.858Z,15.78
2019-03-27T04:20:04.406Z,13.40
2019-03-27T04:22:37.445Z,16.05
2019-03-27T04:25:11.298Z,11.75
2019-03-27T04:27:45.119Z,10.50
2019-03-27T04:30:18.899Z,12.40
2019-03-27T04:32:53.007Z,11.93
2019-03-27T04:35:26.649Z,13.70
2019-03-27T04:38:00.201Z,12.65
2019-03-27T04:40:33.519Z,12.45
2019-03-27T04:43:09.539Z,16.10
2019-03-27T04:45:41.999Z,13.08
2019-03-27T04:48:15.059Z,12.55
2019-03-27T04:50:48.498Z,12.20
2019-03-27T04:53:22.078Z,13.25
2019-03-27T04:55:55.018Z,15.10
2019-03-27T04:58:26.558Z,15.00
2019-03-27T05:01:00.299Z,16.15
2019-03-27T05:03:33.045Z,12.15
2019-03-27T05:06:06.959Z,15.45
2019-03-27T05:08:40.439Z,13.35
2019-03-27T05:11:12.878Z,13.68
2019-03-27T05:13:45.879Z,14.75
2019-03-27T05:16:19.061Z,15.72
2019-03-27T05:18:52.018Z,15.38
2019-03-27T05:21:25.400Z,14.80
2019-03-27T05:23:58.479Z,25.68
2019-03-27T05:26:31.638Z,15.88
2019-03-27T05:29:04.621Z,18.70
2019-03-27T05:31:38.498Z,20.85
2019-03-27T05:34:11.701Z,16.35
2019-03-27T05:36:45.100Z,15.70
2019-03-27T05:39:18.820Z,14.98
2019-03-27T05:41:51.923Z,15.85
2019-03-27T05:44:25.552Z,27.25
2019-03-27T05:47:00.079Z,17.67
2019-03-27T05:49:34.059Z,19.12
2019-03-27T05:52:07.718Z,18.35
2019-03-27T05:54:41.218Z,13.80
2019-03-27T05:57:14.480Z,20.97
2019-03-27T05:59:48.098Z,16.62
2019-03-27T06:02:21.998Z,17.30
2019-03-27T06:04:55.923Z,13.38
2019-03-27T06:07:28.279Z,18.73
2019-03-27T06:10:01.199Z,13.65
2019-03-27T06:12:34.199Z,17.12
2019-03-27T06:15:07.819Z,24.70
2019-03-27T06:17:40.959Z,17.32
2019-03-27T06:20:14.478Z,20.25
2019-03-27T06:22:48.202Z,19.87
2019-03-27T06:25:22.382Z,16.42
2019-03-27T06:27:55.907Z,16.10
2019-03-27T06:30:29.378Z,16.30
2019-03-27T06:33:02.905Z,24.85
2019-03-27T06:35:35.918Z,25.68
2019-03-27T06:38:09.186Z,22.60
2019-03-27T06:40:42.679Z,19.77
2019-03-27T06:43:15.981Z,22.48
2019-03-27T06:45:49.659Z,20.17
2019-03-27T06:48:26.339Z,33.28
2019-03-27T06:50:58.039Z,32.40
2019-03-27T06:53:31.138Z,21.60
2019-03-27T06:56:04.659Z,20.40
2019-03-27T06:58:38.559Z,21.68
2019-03-27T07:01:11.501Z,28.40
2019-03-27T07:03:44.583Z,20.75
2019-03-27T07:06:17.177Z,23.85
2019-03-27T07:08:50.240Z,18.07
2019-03-27T07:11:23.939Z,16.12
2019-03-27T07:13:57.263Z,18.95
2019-03-27T07:16:30.958Z,19.90
2019-03-27T07:19:04.879Z,21.10
2019-03-27T07:21:38.580Z,24.20
2019-03-27T07:24:12.139Z,23.57
2019-03-27T07:26:45.502Z,17.02
2019-03-27T07:29:19.231Z,21.17
2019-03-27T07:31:53.479Z,20.80
2019-03-27T07:34:27.119Z,19.82
2019-03-27T07:37:00.679Z,19.25
2019-03-27T07:39:34.298Z,19.95
2019-03-27T07:42:08.042Z,20.10
2019-03-27T07:44:41.859Z,22.98
2019-03-27T07:47:15.599Z,17.40
2019-03-27T07:49:49.560Z,19.92
2019-03-27T07:52:22.878Z,18.10
2019-03-27T07:54:56.299Z,26.68
2019-03-27T07:57:29.704Z,19.77
2019-03-27T08:00:03.500Z,19.30
2019-03-27T08:02:37.859Z,25.52
2019-03-27T08:05:11.925Z,22.45
2019-03-27T08:07:45.419Z,20.72
2019-03-27T08:10:18.479Z,20.45
2019-03-27T08:12:50.579Z,16.50
2019-03-27T08:15:23.900Z,21.70
2019-03-27T08:17:56.734Z,16.07
2019-03-27T08:20:30.599Z,17.82
2019-03-27T08:23:03.401Z,23.02
2019-03-27T08:25:37.599Z,18.85
2019-03-27T08:28:10.359Z,23.25
2019-03-27T08:30:44.238Z,20.30
2019-03-27T08:33:17.519Z,17.17
2019-03-27T08:35:50.219Z,18.23
2019-03-27T08:38:23.079Z,17.80
2019-03-27T08:40:56.239Z,15.45
2019-03-27T08:43:28.967Z,16.90
2019-03-27T08:46:02.699Z,14.65
2019-03-27T08:48:35.499Z,17.25
2019-03-27T08:51:11.419Z,14.78
2019-03-27T08:53:44.379Z,17.50
2019-03-27T08:56:18.539Z,21.12
2019-03-27T08:58:52.078Z,19.45
2019-03-27T09:01:25.461Z,17.80
2019-03-27T09:03:58.223Z,17.90
2019-03-27T09:06:33.919Z,17.45
2019-03-27T09:09:06.805Z,18.55
2019-03-27T09:11:40.718Z,19.90
2019-03-27T09:14:13.559Z,27.35
2019-03-27T09:16:47.016Z,21.10
2019-03-27T09:19:34.598Z,23.20
2019-03-27T09:21:56.277Z,20.82
2019-03-27T09:24:29.915Z,21.77
2019-03-27T09:27:03.075Z,22.20
2019-03-27T09:29:36.575Z,21.55
2019-03-27T09:32:09.835Z,24.05
2019-03-27T09:34:42.415Z,23.42
2019-03-27T09:37:15.295Z,23.40
2019-03-27T09:39:48.715Z,23.98
2019-03-27T09:42:22.315Z,27.50
2019-03-27T09:44:55.836Z,24.55
2019-03-27T09:47:29.259Z,26.77
2019-03-27T09:50:03.075Z,23.55
2019-03-27T09:52:36.856Z,22.93
2019-03-27T09:55:15.295Z,22.60
2019-03-27T09:57:48.720Z,23.30
2019-03-27T10:00:31.061Z,24.60
2019-03-27T10:03:04.082Z,28.02
2019-03-27T10:05:37.719Z,30.48
2019-03-27T10:08:11.023Z,30.70
2019-03-27T10:10:43.822Z,30.88
2019-03-27T10:13:17.368Z,28.07
2019-03-27T10:15:50.360Z,29.75
2019-03-27T10:18:25.940Z,28.77
2019-03-27T10:20:58.641Z,31.62
2019-03-27T10:23:31.880Z,29.95
2019-03-27T10:26:05.284Z,34.13
2019-03-27T10:28:38.241Z,32.78
2019-03-27T10:31:11.920Z,29.35
2019-03-27T10:33:45.640Z,30.77
2019-03-27T10:36:19.760Z,31.55
2019-03-27T10:38:53.081Z,31.35
2019-03-27T10:41:26.120Z,50.67
2019-03-27T10:43:59.440Z,35.17
2019-03-27T10:46:32.962Z,30.37
2019-03-27T10:49:05.799Z,32.20
2019-03-27T10:51:37.980Z,29.42
2019-03-27T10:54:11.620Z,25.20
2019-03-27T10:56:44.719Z,29.95
2019-03-27T10:59:18.003Z,28.25
2019-03-27T11:01:50.320Z,31.42
2019-03-27T11:04:23.541Z,35.38
2019-03-27T11:06:56.800Z,35.48
2019-03-27T11:09:29.543Z,31.23
2019-03-27T11:12:03.700Z,24.10
2019-03-27T11:14:38.451Z,26.97
2019-03-27T11:17:11.751Z,21.15
2019-03-27T11:19:45.842Z,23.12
2019-03-27T11:22:19.419Z,23.18
2019-03-27T11:24:53.339Z,21.37
2019-03-27T11:27:26.800Z,22.07
2019-03-27T11:29:59.919Z,24.95
2019-03-27T11:32:32.962Z,19.17
2019-03-27T11:35:06.479Z,20.48
2019-03-27T11:37:39.210Z,15.83
2019-03-27T11:40:12.721Z,14.00
2019-03-27T11:42:45.962Z,7.97
2019-03-27T11:45:18.999Z,6.45
2019-03-27T11:47:51.937Z,6.65
2019-03-27T11:50:25.082Z,7.92
2019-03-27T11:52:57.946Z,5.70
2019-03-27T11:55:31.203Z,6.78
2019-03-27T11:58:04.406Z,3.80
2019-03-27T12:00:38.583Z,10.10
2019-03-27T12:03:11.605Z,14.40
2019-03-27T12:05:45.854Z,10.00
2019-03-27T12:08:19.103Z,13.25
2019-03-27T12:10:52.999Z,13.62
2019-03-27T12:13:27.009Z,9.03
2019-03-27T12:16:00.549Z,12.63
2019-03-27T12:18:34.501Z,10.03
2019-03-27T12:21:08.179Z,16.87
2019-03-27T12:23:41.409Z,8.13
2019-03-27T12:26:15.913Z,10.25
2019-03-27T12:28:49.429Z,10.75
2019-03-27T12:31:23.569Z,13.65
2019-03-27T12:33:57.470Z,10.03
2019-03-27T12:36:30.729Z,8.10
2019-03-27T12:39:05.509Z,10.30
2019-03-27T12:41:38.489Z,8.68
2019-03-27T12:44:13.429Z,12.23
2019-03-27T12:46:46.449Z,8.08
2019-03-27T12:49:19.850Z,11.30
2019-03-27T12:51:54.151Z,8.30
2019-03-27T12:54:27.109Z,9.25
2019-03-27T12:57:01.113Z,11.45
2019-03-27T12:59:34.069Z,11.50
2019-03-27T13:02:08.232Z,11.88
2019-03-27T13:04:42.250Z,12.40
2019-03-27T13:07:15.589Z,7.03
2019-03-27T13:09:47.549Z,9.50
2019-03-27T13:12:20.629Z,11.60
2019-03-27T13:14:53.630Z,13.50
2019-03-27T13:17:27.052Z,9.25
2019-03-27T13:20:00.770Z,10.32
2019-03-27T13:22:34.251Z,4.97
2019-03-27T13:25:08.704Z,9.60
2019-03-27T13:27:41.350Z,9.53
2019-03-27T13:30:15.089Z,8.98
2019-03-27T13:32:48.630Z,8.88
2019-03-27T13:35:22.309Z,9.03
2019-03-27T13:37:56.390Z,10.43
2019-03-27T13:40:30.430Z,7.90
2019-03-27T13:43:03.552Z,6.87
2019-03-27T13:45:36.889Z,8.60
2019-03-27T13:48:09.429Z,11.08
2019-03-27T13:50:42.532Z,8.35
2019-03-27T13:53:15.769Z,8.13
2019-03-27T13:55:49.250Z,8.88
2019-03-27T13:58:21.989Z,9.35
2019-03-27T14:00:54.631Z,7.15
2019-03-27T14:03:28.293Z,8.45
2019-03-27T14:06:01.510Z,7.45
2019-03-27T14:08:34.829Z,10.43
2019-03-27T14:11:08.509Z,6.28
2019-03-27T14:13:43.426Z,10.85
2019-03-27T14:16:16.929Z,8.85
2019-03-27T14:18:49.389Z,11.48
2019-03-27T14:21:23.443Z,9.63
2019-03-27T14:23:57.348Z,8.38
2019-03-27T14:26:44.019Z,7.80
2019-03-27T14:29:05.690Z,7.15
2019-03-27T14:31:38.356Z,6.35
2019-03-27T14:34:12.091Z,7.40
2019-03-27T14:36:45.529Z,11.90
2019-03-27T14:39:18.628Z,6.58
2019-03-27T14:41:52.590Z,7.03
2019-03-27T14:44:26.357Z,8.03
2019-03-27T14:46:58.470Z,8.48
2019-03-27T14:49:31.132Z,11.45
2019-03-27T14:52:08.505Z,9.88
2019-03-27T14:54:38.310Z,7.72
2019-03-27T14:57:11.709Z,8.68
2019-03-27T14:59:44.989Z,9.23
2019-03-27T15:02:18.050Z,10.05
2019-03-27T15:04:50.789Z,10.65
2019-03-27T15:07:23.091Z,9.23
2019-03-27T15:09:56.311Z,24.87
2019-03-27T15:12:30.311Z,9.08
2019-03-27T15:15:04.029Z,7.47
2019-03-27T15:17:37.551Z,8.55
2019-03-27T15:20:12.389Z,4.30
2019-03-27T15:22:45.733Z,5.28
2019-03-27T15:25:19.251Z,7.58
2019-03-27T15:27:52.435Z,7.80
2019-03-27T15:30:31.173Z,7.50
2019-03-27T15:33:04.509Z,7.22
2019-03-27T15:35:37.189Z,8.30
2019-03-27T15:38:10.250Z,6.85
2019-03-27T15:40:43.853Z,7.55
2019-03-27T15:43:16.868Z,7.65
2019-03-27T15:45:50.309Z,7.45
2019-03-27T15:48:23.388Z,5.45
2019-03-27T15:50:58.882Z,5.55
2019-03-27T15:53:31.689Z,5.97
2019-03-27T15:56:05.622Z,5.87
2019-03-27T15:58:38.946Z,8.68
2019-03-27T16:01:12.582Z,6.62
2019-03-27T16:03:45.940Z,7.58
2019-03-27T16:06:19.100Z,7.40
2019-03-27T16:08:51.764Z,6.20
2019-03-27T16:11:25.279Z,9.40
2019-03-27T16:13:59.159Z,6.30
2019-03-27T16:16:32.779Z,7.85
2019-03-27T16:19:06.198Z,5.33
2019-03-27T16:21:38.799Z,5.53
2019-03-27T16:24:11.815Z,6.30
2019-03-27T16:26:48.354Z,5.47
2019-03-27T16:29:19.880Z,6.28
2019-03-27T16:31:53.690Z,7.58
2019-03-27T16:34:27.208Z,7.60
2019-03-27T16:36:59.977Z,5.53
2019-03-27T16:39:32.517Z,6.47
2019-03-27T16:42:05.337Z,7.45
2019-03-27T16:44:38.503Z,7.22
2019-03-27T16:47:11.909Z,6.72
2019-03-27T16:49:44.451Z,5.62
2019-03-27T16:52:17.786Z,3.58
2019-03-27T16:54:51.267Z,7.72
2019-03-27T16:57:24.266Z,6.47
2019-03-27T16:59:57.665Z,6.87
2019-03-27T17:02:30.619Z,7.75
2019-03-27T17:05:03.935Z,6.87
2019-03-27T17:07:37.196Z,5.45
2019-03-27T17:10:10.814Z,6.00
2019-03-27T17:12:43.468Z,14.80
2019-03-27T17:15:16.612Z,7.53
2019-03-27T17:17:49.214Z,7.78
2019-03-27T17:20:21.714Z,6.62
2019-03-27T17:22:54.235Z,4.97
2019-03-27T17:25:27.193Z,6.92
2019-03-27T17:27:59.976Z,5.45
2019-03-27T17:30:32.554Z,6.87
2019-03-27T17:33:05.494Z,9.75
2019-03-27T17:35:38.734Z,10.23
2019-03-27T17:38:11.440Z,4.28
2019-03-27T17:40:44.894Z,9.08
2019-03-27T17:43:18.515Z,6.92
2019-03-27T17:45:51.556Z,8.58
2019-03-27T17:48:25.454Z,7.10
2019-03-27T17:50:59.074Z,8.75
2019-03-27T17:53:32.253Z,7.65
2019-03-27T17:56:06.596Z,8.20
2019-03-27T17:58:39.396Z,7.70
2019-03-27T18:01:13.010Z,6.22
2019-03-27T18:03:46.153Z,6.50
2019-03-27T18:06:19.136Z,8.70
2019-03-27T18:08:52.555Z,8.15
2019-03-27T18:11:26.571Z,7.78
2019-03-27T18:13:59.494Z,6.25
2019-03-27T18:16:33.197Z,6.85
2019-03-27T18:19:07.014Z,6.80
2019-03-27T18:21:41.114Z,6.60
2019-03-27T18:24:13.516Z,6.85
2019-03-27T18:26:48.074Z,7.85
2019-03-27T18:29:21.034Z,8.55
2019-03-27T18:31:53.458Z,7.40
2019-03-27T18:34:26.673Z,7.03
2019-03-27T18:36:59.733Z,6.95
2019-03-27T18:39:32.414Z,7.28
2019-03-27T18:42:06.593Z,7.65
2019-03-27T18:44:39.914Z,6.50
2019-03-27T18:47:13.373Z,7.47
2019-03-27T18:49:46.973Z,6.90
2019-03-27T18:52:21.793Z,6.67
2019-03-27T18:54:55.060Z,7.33
2019-03-27T18:57:28.898Z,6.50
2019-03-27T19:00:02.813Z,5.90
2019-03-27T19:02:36.938Z,9.05
2019-03-27T19:05:10.409Z,7.45
2019-03-27T19:07:44.233Z,7.90
2019-03-27T19:10:18.934Z,7.22
2019-03-27T19:12:52.478Z,7.58
2019-03-27T19:15:26.014Z,7.12
2019-03-27T19:17:59.235Z,7.62
2019-03-27T19:20:32.594Z,8.03
2019-03-27T19:23:06.154Z,7.28
2019-03-27T19:25:39.614Z,6.30
2019-03-27T19:28:13.194Z,6.60
2019-03-27T19:30:46.733Z,7.03
2019-03-27T19:33:20.054Z,8.38
2019-03-27T19:35:54.074Z,7.28
2019-03-27T19:38:27.814Z,6.92
2019-03-27T19:41:00.834Z,8.30
2019-03-27T19:43:33.234Z,7.50
2019-03-27T19:46:06.314Z,7.50
2019-03-27T19:48:39.734Z,7.90
2019-03-27T19:51:12.737Z,8.63
2019-03-27T19:53:46.234Z,6.33
2019-03-27T19:56:20.194Z,6.83
2019-03-27T19:58:53.794Z,8.38
2019-03-27T20:01:27.394Z,6.22
2019-03-27T20:04:00.694Z,7.55
2019-03-27T20:06:33.515Z,6.30
2019-03-27T20:09:07.573Z,6.05
2019-03-27T20:11:41.192Z,6.33
2019-03-27T20:14:14.874Z,5.70
2019-03-27T20:16:48.075Z,6.35
2019-03-27T20:19:21.515Z,5.28
2019-03-27T20:21:54.354Z,6.20
2019-03-27T20:24:40.540Z,6.00
2019-03-27T20:27:02.954Z,6.35
2019-03-27T20:29:36.055Z,5.92
2019-03-27T20:32:09.387Z,6.65
2019-03-27T20:34:43.436Z,6.08
2019-03-27T20:37:17.034Z,6.20
2019-03-27T20:39:50.033Z,6.00
2019-03-27T20:42:23.873Z,6.60
2019-03-27T20:44:57.073Z,5.83
2019-03-27T20:47:31.253Z,5.53
2019-03-27T20:50:05.173Z,5.67
2019-03-27T20:52:38.633Z,5.90
2019-03-27T20:55:12.254Z,5.40
2019-03-27T20:57:45.213Z,7.17
2019-03-27T21:00:18.818Z,6.25
2019-03-27T21:02:52.394Z,6.47
2019-03-27T21:05:26.393Z,6.03
2019-03-27T21:07:59.276Z,6.53
2019-03-27T21:10:32.676Z,6.95
2019-03-27T21:13:06.174Z,6.75
2019-03-27T21:15:39.514Z,6.95
2019-03-27T21:18:12.474Z,6.55
2019-03-27T21:20:45.314Z,8.10
2019-03-27T21:23:18.074Z,6.58
2019-03-27T21:25:51.274Z,9.63
2019-03-27T21:28:24.194Z,8.13
2019-03-27T21:30:56.474Z,7.92
2019-03-27T21:33:29.314Z,7.75
2019-03-27T21:36:03.138Z,7.40
2019-03-27T21:38:37.115Z,8.53
2019-03-27T21:41:10.895Z,8.85
2019-03-27T21:43:44.154Z,7.75
2019-03-27T21:46:18.157Z,7.58
2019-03-27T21:48:51.295Z,7.17
2019-03-27T21:51:24.453Z,8.50
2019-03-27T21:53:57.633Z,7.15
2019-03-27T21:56:30.513Z,7.28
2019-03-27T21:59:03.542Z,7.30
2019-03-27T22:01:36.573Z,8.30
2019-03-27T22:04:10.257Z,8.43
2019-03-27T22:06:44.013Z,7.33
2019-03-27T22:09:16.730Z,8.83
2019-03-27T22:11:50.333Z,9.63
2019-03-27T22:14:24.074Z,9.50
2019-03-27T22:16:58.173Z,9.20
2019-03-27T22:19:32.392Z,9.70
2019-03-27T22:22:05.717Z,10.25
2019-03-27T22:24:39.293Z,10.38
2019-03-27T22:27:12.334Z,11.95
2019-03-27T22:29:44.953Z,11.38
2019-03-27T22:32:18.537Z,11.03
2019-03-27T22:34:51.494Z,12.70
2019-03-27T22:37:25.094Z,11.55
2019-03-27T22:39:58.754Z,13.00
2019-03-27T22:42:31.914Z,11.55
2019-03-27T22:45:05.359Z,12.03
2019-03-27T22:47:38.654Z,12.47
2019-03-27T22:50:11.694Z,11.38
2019-03-27T22:52:45.194Z,15.38
2019-03-27T22:55:18.476Z,12.15
2019-03-27T22:57:52.217Z,11.68
2019-03-27T23:00:33.794Z,12.50
2019-03-27T23:03:17.753Z,11.70
2019-03-27T23:05:43.834Z,10.90
2019-03-27T23:08:17.694Z,9.65
2019-03-27T23:10:51.940Z,10.10
2019-03-27T23:13:25.594Z,10.08
2019-03-27T23:15:59.614Z,9.60
2019-03-27T23:18:33.574Z,11.00
2019-03-27T23:21:07.135Z,12.43
2019-03-27T23:23:40.714Z,10.30
2019-03-27T23:26:14.733Z,8.98
2019-03-27T23:28:48.058Z,10.65
2019-03-27T23:31:21.915Z,9.88
2019-03-27T23:33:55.934Z,10.38
2019-03-27T23:36:29.133Z,10.00
2019-03-27T23:39:03.313Z,10.23
2019-03-27T23:41:36.895Z,11.10
2019-03-27T23:44:10.353Z,10.35
2019-03-27T23:46:44.833Z,11.28
2019-03-27T23:49:18.273Z,10.68
2019-03-27T23:51:51.753Z,10.45
2019-03-27T23:54:25.935Z,11.55
2019-03-27T23:56:59.433Z,10.55
2019-03-27T23:59:33.173Z,9.23
